Time;durP1;ratioP1;P1;durP2;ratioP2;P2;SDS_P1;SDS_P2;PMS_P1;PMS_P2;Temp;Humidity;BMP_temperature;BMP_pressure;BME280_temperature;BME280_humidity;BME280_pressure;Samples;Min_cycle;Max_cycle;Signal;HPM_P1;HPM_P2
2021/08/25 00:01:27;;;;;;;2.90;2.60;;;17.00;99.90;;;;;;5005201;28;20472;-69
2021/08/25 00:03:53;;;;;;;3.23;2.67;;;16.90;99.90;;;;;;4989231;28;20221;-68
2021/08/25 00:06:18;;;;;;;3.03;2.73;;;16.90;99.90;;;;;;4984373;28;20225;-70
2021/08/25 00:08:44;;;;;;;3.17;2.60;;;16.90;99.90;;;;;;5000002;28;20485;-68
2021/08/25 00:11:10;;;;;;;4.00;2.67;;;16.90;99.90;;;;;;4990212;28;20222;-70
2021/08/25 00:13:36;;;;;;;3.10;2.80;;;16.90;99.90;;;;;;5004962;28;20265;-68
2021/08/25 00:16:01;;;;;;;2.73;2.53;;;16.80;99.90;;;;;;4982626;28;20218;-69
2021/08/25 00:18:27;;;;;;;3.30;2.53;;;16.80;99.90;;;;;;4995881;28;25859;-69
2021/08/25 00:20:53;;;;;;;5.07;3.03;;;16.80;99.90;;;;;;5004740;28;20654;-68
2021/08/25 00:23:18;;;;;;;2.97;2.40;;;16.80;99.90;;;;;;4991778;28;20304;-69
2021/08/25 00:25:44;;;;;;;3.10;2.50;;;16.70;99.90;;;;;;4990620;28;20252;-68
2021/08/25 00:28:10;;;;;;;3.00;2.70;;;16.70;99.90;;;;;;5007208;28;20249;-68
2021/08/25 00:30:35;;;;;;;3.90;2.60;;;16.70;99.90;;;;;;4990322;28;20340;-69
2021/08/25 00:33:01;;;;;;;3.73;2.83;;;16.70;99.90;;;;;;4991183;28;20256;-69
2021/08/25 00:35:27;;;;;;;3.70;3.00;;;16.60;99.90;;;;;;4990407;28;20277;-70
2021/08/25 00:37:53;;;;;;;4.33;2.50;;;16.60;99.90;;;;;;5006695;28;20273;-69
2021/08/25 00:40:19;;;;;;;3.10;2.63;;;16.60;99.90;;;;;;5006921;28;20233;-69
2021/08/25 00:42:45;;;;;;;3.60;2.73;;;16.60;99.90;;;;;;4990804;28;20222;-70
2021/08/25 00:45:11;;;;;;;2.73;2.50;;;16.60;99.90;;;;;;5006915;28;20452;-68
2021/08/25 00:47:41;;;;;;;4.03;3.57;;;16.60;99.90;;;;;;4990545;28;20309;-69
2021/08/25 00:50:08;;;;;;;7.53;3.10;;;16.60;99.90;;;;;;5007417;28;20539;-69
2021/08/25 00:52:38;;;;;;;6.90;3.37;;;16.50;99.90;;;;;;5006802;28;20457;-70
2021/08/25 00:55:04;;;;;;;3.70;2.83;;;16.50;99.90;;;;;;5006208;28;20464;-69
2021/08/25 00:57:31;;;;;;;5.60;5.03;;;16.50;99.90;;;;;;5003846;28;20562;-69
2021/08/25 00:59:56;;;;;;;3.10;2.80;;;16.50;99.90;;;;;;5007129;28;20460;-69
2021/08/25 01:02:30;;;;;;;3.03;2.73;;;16.50;99.90;;;;;;4989489;28;20480;-69
2021/08/25 01:04:59;;;;;;;4.73;3.13;;;16.50;99.90;;;;;;4990901;28;20697;-69
2021/08/25 01:07:27;;;;;;;4.20;3.27;;;16.50;99.90;;;;;;4990395;28;21161;-70
2021/08/25 01:09:55;;;;;;;3.50;2.93;;;16.50;99.90;;;;;;4986965;28;20452;-69
2021/08/25 01:12:21;;;;;;;3.90;2.90;;;16.50;99.90;;;;;;5006375;28;20533;-70
2021/08/25 01:14:47;;;;;;;4.80;2.93;;;16.50;99.90;;;;;;5005946;28;20465;-69
2021/08/25 01:17:18;;;;;;;3.33;3.03;;;16.50;99.90;;;;;;5007671;28;20504;-70
2021/08/25 01:19:52;;;;;;;4.77;3.10;;;16.50;99.90;;;;;;5007214;28;20480;-69
2021/08/25 01:22:20;;;;;;;3.87;3.37;;;16.40;99.90;;;;;;4987021;28;20500;-70
2021/08/25 01:24:47;;;;;;;4.40;3.57;;;16.40;99.90;;;;;;5028655;28;20476;-69
2021/08/25 01:27:15;;;;;;;3.20;2.90;;;16.40;99.90;;;;;;5006332;28;20456;-70
2021/08/25 01:29:41;;;;;;;3.43;3.17;;;16.40;99.90;;;;;;5006977;28;20838;-69
2021/08/25 01:32:07;;;;;;;5.40;2.80;;;16.40;99.90;;;;;;5006374;28;20460;-69
2021/08/25 01:34:49;;;;;;;3.47;2.93;;;16.30;99.90;;;;;;5015221;28;20309;-68
2021/08/25 01:37:15;;;;;;;3.20;2.90;;;16.30;99.90;;;;;;5005709;28;20232;-69
2021/08/25 01:39:40;;;;;;;4.00;3.60;;;16.30;99.90;;;;;;5007694;28;20863;-68
2021/08/25 01:42:06;;;;;;;4.63;3.17;;;16.30;99.90;;;;;;4986979;28;20226;-68
2021/08/25 01:44:31;;;;;;;3.37;2.80;;;16.30;99.90;;;;;;4990220;28;20217;-68
2021/08/25 01:46:57;;;;;;;2.77;2.57;;;16.30;99.90;;;;;;5006402;28;20228;-68
2021/08/25 01:49:23;;;;;;;3.93;3.30;;;16.30;99.90;;;;;;4998354;28;20262;-69
2021/08/25 01:51:48;;;;;;;3.93;2.87;;;16.20;99.90;;;;;;4990172;28;20646;-69
2021/08/25 01:54:14;;;;;;;3.50;2.97;;;16.20;99.90;;;;;;4981355;28;20233;-69
2021/08/25 01:56:40;;;;;;;3.00;2.70;;;16.20;99.90;;;;;;4991756;28;20245;-70
2021/08/25 01:59:07;;;;;;;4.17;3.47;;;16.20;99.90;;;;;;5003571;28;20226;-69
2021/08/25 02:01:32;;;;;;;3.67;2.97;;;16.20;99.90;;;;;;4982044;28;20472;-69
2021/08/25 02:04:01;;;;;;;3.23;2.80;;;16.20;99.90;;;;;;4986033;28;20488;-69
2021/08/25 02:06:27;;;;;;;4.00;3.17;;;16.10;99.90;;;;;;4983520;28;20476;-69
2021/08/25 02:08:53;;;;;;;3.30;3.00;;;16.10;99.90;;;;;;4993801;28;20464;-69
2021/08/25 02:11:20;;;;;;;3.57;3.27;;;16.10;99.90;;;;;;5005007;28;20229;-70
2021/08/25 02:13:46;;;;;;;3.27;2.97;;;16.10;99.90;;;;;;4990584;28;20327;-69
2021/08/25 02:16:11;;;;;;;5.83;3.50;;;16.10;99.90;;;;;;5004774;28;20550;-70
2021/08/25 02:18:37;;;;;;;3.70;2.83;;;16.10;99.90;;;;;;4989826;28;20213;-69
2021/08/25 02:21:03;;;;;;;5.10;3.27;;;16.10;99.90;;;;;;5006959;28;20224;-69
2021/08/25 02:23:29;;;;;;;6.37;3.17;;;16.00;99.90;;;;;;4988026;28;20233;-70
2021/08/25 02:25:54;;;;;;;4.10;3.13;;;16.00;99.90;;;;;;5006239;28;20465;-69
2021/08/25 02:28:20;;;;;;;3.97;3.03;;;16.00;99.90;;;;;;5001655;28;20223;-69
2021/08/25 02:30:46;;;;;;;4.00;3.60;;;15.90;99.90;;;;;;5006767;28;20338;-70
2021/08/25 02:33:11;;;;;;;3.23;2.97;;;15.90;99.90;;;;;;5006460;28;20316;-68
2021/08/25 02:35:37;;;;;;;5.90;2.80;;;16.00;99.90;;;;;;5006714;28;20263;-69
2021/08/25 02:38:03;;;;;;;3.90;3.20;;;15.90;99.90;;;;;;5006088;28;20777;-68
2021/08/25 02:40:28;;;;;;;3.03;2.83;;;15.90;99.90;;;;;;4988399;28;20616;-69
2021/08/25 02:42:54;;;;;;;4.57;3.17;;;15.90;99.90;;;;;;5006691;28;20230;-69
2021/08/25 02:45:20;;;;;;;4.83;3.07;;;15.90;99.90;;;;;;4987523;28;20743;-69
2021/08/25 02:47:46;;;;;;;6.97;3.20;;;15.90;99.90;;;;;;5006488;28;20316;-69
2021/08/25 02:50:11;;;;;;;4.83;3.30;;;15.90;99.90;;;;;;5004352;28;20217;-70
2021/08/25 02:52:37;;;;;;;4.53;2.90;;;15.80;99.90;;;;;;4986709;28;20237;-70
2021/08/25 02:55:03;;;;;;;3.33;3.00;;;15.80;99.90;;;;;;5005460;28;20383;-69
2021/08/25 02:57:29;;;;;;;3.30;2.73;;;15.80;99.90;;;;;;5005723;28;20290;-69
2021/08/25 02:59:54;;;;;;;4.03;2.73;;;15.80;99.90;;;;;;5002319;28;20473;-69
2021/08/25 03:02:20;;;;;;;3.77;3.10;;;15.80;99.90;;;;;;5002960;28;20308;-70
2021/08/25 03:04:46;;;;;;;3.17;2.50;;;15.80;99.90;;;;;;5006187;28;20259;-69
2021/08/25 03:07:11;;;;;;;4.70;2.90;;;15.80;99.90;;;;;;4988299;28;20217;-70
2021/08/25 03:09:37;;;;;;;3.07;2.63;;;15.80;99.90;;;;;;4988846;28;20689;-69
2021/08/25 03:12:03;;;;;;;4.77;3.10;;;15.80;99.90;;;;;;4989574;28;20295;-69
2021/08/25 03:14:29;;;;;;;6.50;2.80;;;15.70;99.90;;;;;;5003852;28;20226;-69
2021/08/25 03:16:54;;;;;;;3.90;2.90;;;15.70;99.90;;;;;;5005856;28;20222;-69
2021/08/25 03:19:20;;;;;;;4.97;3.30;;;15.70;99.90;;;;;;4985073;28;20222;-69
2021/08/25 03:21:46;;;;;;;3.83;3.17;;;15.70;99.90;;;;;;5005912;28;20600;-69
2021/08/25 03:24:11;;;;;;;6.70;3.07;;;15.70;99.90;;;;;;4997694;28;20229;-68
2021/08/25 03:26:38;;;;;;;3.63;3.00;;;15.70;99.90;;;;;;5005577;28;20226;-70
2021/08/25 03:29:04;;;;;;;4.30;2.50;;;15.70;99.90;;;;;;5005690;28;20244;-68
2021/08/25 03:31:30;;;;;;;4.10;3.10;;;15.60;99.90;;;;;;5003113;28;20930;-69
2021/08/25 03:33:56;;;;;;;4.97;3.63;;;15.60;99.90;;;;;;5006870;28;20231;-69
2021/08/25 03:36:21;;;;;;;3.10;2.47;;;15.60;99.90;;;;;;5003731;28;20468;-69
2021/08/25 03:38:47;;;;;;;3.70;2.97;;;15.60;99.90;;;;;;4984502;28;20222;-69
2021/08/25 03:41:13;;;;;;;3.07;2.63;;;15.60;99.90;;;;;;5003552;28;20269;-69
2021/08/25 03:43:39;;;;;;;4.63;3.33;;;15.60;99.90;;;;;;5005561;28;20224;-68
2021/08/25 03:46:04;;;;;;;4.43;3.17;;;15.50;99.90;;;;;;5003548;28;20973;-69
2021/08/25 03:48:30;;;;;;;2.67;2.47;;;15.50;99.90;;;;;;5003589;28;20217;-70
2021/08/25 03:50:56;;;;;;;3.53;2.90;;;15.50;99.90;;;;;;5004617;28;20243;-69
2021/08/25 03:53:22;;;;;;;3.50;3.13;;;15.50;99.90;;;;;;5003211;28;20218;-69
2021/08/25 03:55:47;;;;;;;4.30;3.57;;;15.50;99.90;;;;;;4988317;28;20252;-69
2021/08/25 03:58:13;;;;;;;4.50;3.27;;;15.50;99.90;;;;;;4987192;28;20221;-69
2021/08/25 04:00:38;;;;;;;3.80;2.70;;;15.50;99.90;;;;;;4988204;28;20597;-69
2021/08/25 04:03:04;;;;;;;4.73;3.00;;;15.40;99.90;;;;;;4985549;28;20249;-69
2021/08/25 04:05:30;;;;;;;5.77;3.37;;;15.40;99.90;;;;;;4986886;28;20285;-69
2021/08/25 04:07:55;;;;;;;3.50;3.03;;;15.30;99.90;;;;;;5005009;28;20632;-69
2021/08/25 04:10:21;;;;;;;4.30;3.10;;;15.30;99.90;;;;;;4981645;28;20249;-69
2021/08/25 04:12:47;;;;;;;4.43;3.40;;;15.30;99.90;;;;;;5004887;28;20274;-69
2021/08/25 04:15:12;;;;;;;3.83;3.40;;;15.30;99.90;;;;;;5003255;28;20732;-68
2021/08/25 04:17:38;;;;;;;6.27;3.00;;;15.30;99.90;;;;;;4988739;28;20273;-69
2021/08/25 04:20:04;;;;;;;5.17;3.13;;;15.20;99.90;;;;;;5004325;28;20225;-68
2021/08/25 04:22:30;;;;;;;3.87;3.03;;;15.20;99.90;;;;;;5003066;28;20247;-69
2021/08/25 04:24:55;;;;;;;6.60;3.10;;;15.10;99.90;;;;;;4982600;28;20975;-69
2021/08/25 04:27:23;;;;;;;3.83;2.80;;;15.20;99.90;;;;;;5002141;28;20225;-69
2021/08/25 04:29:49;;;;;;;4.03;3.10;;;15.10;99.90;;;;;;5004901;28;20229;-69
2021/08/25 04:32:15;;;;;;;3.60;3.07;;;15.10;99.90;;;;;;4986045;28;20476;-70
2021/08/25 04:34:40;;;;;;;3.17;2.87;;;15.10;99.90;;;;;;5004362;28;20517;-69
2021/08/25 04:37:06;;;;;;;5.50;3.20;;;15.10;99.90;;;;;;5003777;28;20218;-68
2021/08/25 04:39:32;;;;;;;4.07;3.67;;;15.00;99.90;;;;;;4992813;28;20237;-69
2021/08/25 04:41:57;;;;;;;4.47;2.90;;;15.00;99.90;;;;;;4985103;28;20222;-69
2021/08/25 04:44:23;;;;;;;3.30;2.93;;;15.00;99.90;;;;;;4999664;28;20255;-69
2021/08/25 04:46:49;;;;;;;3.40;3.07;;;15.00;99.90;;;;;;4990758;28;20232;-69
2021/08/25 04:49:14;;;;;;;5.10;3.27;;;15.00;99.90;;;;;;5001948;28;20251;-69
2021/08/25 04:51:40;;;;;;;6.20;3.10;;;15.00;99.90;;;;;;5003701;28;20253;-68
2021/08/25 04:54:06;;;;;;;3.93;3.20;;;15.00;99.90;;;;;;4999512;28;20268;-70
2021/08/25 04:56:31;;;;;;;10.37;3.40;;;15.00;99.90;;;;;;5002299;28;20232;-69
2021/08/25 04:58:57;;;;;;;6.40;3.10;;;15.00;99.90;;;;;;5012727;28;20708;-69
2021/08/25 05:01:22;;;;;;;4.27;3.13;;;15.00;99.90;;;;;;4983250;28;20230;-70
2021/08/25 05:03:48;;;;;;;4.93;3.17;;;15.00;99.90;;;;;;5002581;28;20222;-69
2021/08/25 05:06:14;;;;;;;3.63;3.00;;;15.00;99.90;;;;;;5004553;28;20248;-70
2021/08/25 05:08:40;;;;;;;5.07;3.83;;;15.00;99.90;;;;;;4993736;28;20273;-69
2021/08/25 05:11:08;;;;;;;4.33;3.10;;;15.10;99.90;;;;;;4998742;28;20317;-68
2021/08/25 05:13:35;;;;;;;4.07;3.00;;;15.10;99.90;;;;;;4987351;28;20312;-69
2021/08/25 05:16:01;;;;;;;5.17;2.80;;;15.10;99.90;;;;;;4982458;28;20461;-69
2021/08/25 05:18:27;;;;;;;3.90;3.07;;;15.10;99.90;;;;;;5002114;28;20465;-69
2021/08/25 05:20:54;;;;;;;4.73;3.20;;;15.10;99.90;;;;;;5003310;28;20221;-69
2021/08/25 05:23:20;;;;;;;3.80;3.13;;;15.10;99.90;;;;;;5002140;28;20477;-69
2021/08/25 05:25:45;;;;;;;3.53;2.80;;;15.10;99.90;;;;;;5003520;28;20481;-69
2021/08/25 05:28:11;;;;;;;3.50;3.20;;;15.10;99.90;;;;;;4993191;28;20477;-69
2021/08/25 05:30:37;;;;;;;3.50;3.20;;;15.10;99.90;;;;;;4983666;28;20226;-69
2021/08/25 05:33:02;;;;;;;4.50;3.83;;;15.10;99.90;;;;;;5002685;28;20237;-68
2021/08/25 05:35:28;;;;;;;3.70;3.07;;;15.10;99.90;;;;;;4981974;28;20262;-69
2021/08/25 05:37:54;;;;;;;4.47;3.60;;;15.10;99.90;;;;;;5001178;28;20240;-70
2021/08/25 05:40:19;;;;;;;3.63;3.30;;;15.10;99.90;;;;;;4981007;28;20249;-70
2021/08/25 05:42:45;;;;;;;4.70;3.83;;;15.10;99.90;;;;;;4999703;28;20295;-69
2021/08/25 05:45:11;;;;;;;3.60;3.30;;;15.10;99.90;;;;;;4997695;28;20248;-68
2021/08/25 05:47:38;;;;;;;3.60;3.20;;;15.10;99.90;;;;;;4985810;28;20977;-70
2021/08/25 05:50:05;;;;;;;4.53;3.63;;;15.10;99.90;;;;;;4986404;28;20468;-67
2021/08/25 05:52:31;;;;;;;4.03;3.67;;;15.10;99.90;;;;;;4999823;28;20468;-69
2021/08/25 05:54:57;;;;;;;3.20;2.87;;;15.10;99.90;;;;;;4982166;28;20865;-69
2021/08/25 05:57:22;;;;;;;5.83;3.03;;;15.10;99.90;;;;;;4997167;28;20241;-69
2021/08/25 05:59:48;;;;;;;5.13;2.53;;;15.20;99.90;;;;;;5002036;28;20229;-69
2021/08/25 06:02:14;;;;;;;6.87;3.27;;;15.20;99.90;;;;;;4984019;28;20315;-69
2021/08/25 06:04:39;;;;;;;9.47;3.10;;;15.20;99.90;;;;;;4984522;28;20252;-69
2021/08/25 06:07:09;;;;;;;5.97;3.30;;;15.20;99.90;;;;;;4986117;28;20236;-68
2021/08/25 06:09:35;;;;;;;6.70;3.60;;;15.20;99.90;;;;;;5065522;28;20229;-69
2021/08/25 06:12:01;;;;;;;3.80;3.33;;;15.30;99.90;;;;;;4999202;28;20502;-69
2021/08/25 06:14:27;;;;;;;3.07;2.80;;;15.30;99.90;;;;;;4986698;28;20209;-69
2021/08/25 06:16:52;;;;;;;5.40;3.50;;;15.30;99.90;;;;;;4981297;28;20492;-69
2021/08/25 06:19:18;;;;;;;2.77;2.57;;;15.30;99.90;;;;;;4997245;28;20233;-70
2021/08/25 06:21:45;;;;;;;3.77;3.00;;;15.30;99.90;;;;;;5002032;28;20229;-69
2021/08/25 06:24:11;;;;;;;3.43;2.77;;;15.40;99.90;;;;;;4999596;28;20245;-69
2021/08/25 06:26:36;;;;;;;4.40;3.10;;;15.40;99.90;;;;;;4984480;28;20906;-70
2021/08/25 06:29:02;;;;;;;3.97;3.10;;;15.50;99.90;;;;;;5000916;28;20222;-68
2021/08/25 06:31:28;;;;;;;3.23;2.90;;;15.50;99.90;;;;;;4983497;28;20300;-70
2021/08/25 06:33:53;;;;;;;3.67;3.27;;;15.50;99.90;;;;;;4985280;28;20239;-70
2021/08/25 06:36:19;;;;;;;3.37;2.67;;;15.50;99.90;;;;;;4982485;28;20241;-69
2021/08/25 06:38:45;;;;;;;5.23;3.17;;;15.60;99.90;;;;;;4985028;28;20342;-70
2021/08/25 06:41:11;;;;;;;3.80;3.07;;;15.60;99.90;;;;;;5001190;28;20228;-70
2021/08/25 06:43:36;;;;;;;8.30;3.80;;;15.60;99.90;;;;;;5000934;28;20224;-68
2021/08/25 06:46:02;;;;;;;3.50;3.20;;;15.70;99.90;;;;;;5012341;28;20692;-70
2021/08/25 06:48:28;;;;;;;3.63;3.33;;;15.70;99.90;;;;;;4981663;28;20242;-69
2021/08/25 06:50:54;;;;;;;3.03;2.70;;;15.80;99.90;;;;;;5001292;28;20451;-69
2021/08/25 06:53:21;;;;;;;2.90;2.70;;;15.80;99.90;;;;;;4967477;28;20237;-69
2021/08/25 06:55:47;;;;;;;2.80;2.60;;;15.90;99.90;;;;;;5001525;28;20241;-69
2021/08/25 06:58:13;;;;;;;5.27;3.40;;;15.90;99.90;;;;;;4986764;28;20545;-69
2021/08/25 07:00:38;;;;;;;4.57;3.40;;;16.00;99.90;;;;;;4987194;28;20575;-69
2021/08/25 07:03:04;;;;;;;3.07;2.77;;;16.10;99.90;;;;;;4987431;28;20240;-69
2021/08/25 07:05:29;;;;;;;3.63;3.10;;;16.20;99.90;;;;;;4985357;28;20229;-70
2021/08/25 07:07:57;;;;;;;5.10;3.20;;;16.20;99.90;;;;;;5004051;28;20718;-69
2021/08/25 07:10:23;;;;;;;5.80;3.20;;;16.30;99.90;;;;;;4992221;28;20606;-70
2021/08/25 07:12:49;;;;;;;3.10;2.80;;;16.40;99.90;;;;;;4985099;28;20480;-70
2021/08/25 07:15:18;;;;;;;3.67;3.20;;;16.40;99.90;;;;;;4983639;28;20487;-69
2021/08/25 07:17:44;;;;;;;3.17;2.80;;;16.50;99.90;;;;;;5013866;28;20965;-69
2021/08/25 07:20:11;;;;;;;3.33;2.90;;;16.60;99.90;;;;;;4985465;28;20464;-70
2021/08/25 07:22:37;;;;;;;5.80;3.10;;;16.60;99.90;;;;;;5004032;28;20460;-70
2021/08/25 07:25:05;;;;;;;4.70;3.30;;;16.70;99.90;;;;;;4987154;28;20480;-70
2021/08/25 07:27:31;;;;;;;9.10;3.93;;;16.80;99.90;;;;;;4986250;28;20597;-70
2021/08/25 07:29:57;;;;;;;3.90;2.80;;;16.90;99.90;;;;;;4986573;28;20464;-69
2021/08/25 07:32:22;;;;;;;14.77;3.63;;;17.00;99.90;;;;;;5001784;28;20471;-69
2021/08/25 07:34:48;;;;;;;4.60;3.23;;;17.10;99.90;;;;;;4987451;28;20217;-70
2021/08/25 07:37:14;;;;;;;4.70;4.17;;;17.10;99.90;;;;;;4986234;28;20234;-70
2021/08/25 07:39:39;;;;;;;4.23;3.70;;;17.20;99.90;;;;;;5003115;28;20248;-69
2021/08/25 07:42:05;;;;;;;4.73;3.50;;;17.30;99.90;;;;;;5004668;28;20241;-69
2021/08/25 07:44:31;;;;;;;3.90;3.50;;;17.30;99.90;;;;;;5001441;28;20225;-69
2021/08/25 07:46:57;;;;;;;4.67;3.53;;;17.40;99.90;;;;;;5002625;28;20221;-70
2021/08/25 07:49:23;;;;;;;7.70;3.73;;;17.50;99.90;;;;;;5002187;28;20755;-70
2021/08/25 07:51:49;;;;;;;4.90;3.20;;;17.60;99.90;;;;;;4994464;28;20214;-70
2021/08/25 07:54:15;;;;;;;5.83;3.47;;;17.60;99.90;;;;;;4989906;28;20484;-71
2021/08/25 07:56:41;;;;;;;4.00;3.20;;;17.70;99.90;;;;;;5003403;28;20550;-70
2021/08/25 07:59:06;;;;;;;3.10;2.80;;;17.90;99.90;;;;;;4988256;28;20301;-69
2021/08/25 08:01:33;;;;;;;4.67;3.47;;;18.00;99.90;;;;;;4983595;28;20267;-70
2021/08/25 08:03:59;;;;;;;7.23;3.03;;;18.00;99.90;;;;;;5002612;28;20651;-69
2021/08/25 08:06:25;;;;;;;4.87;2.93;;;18.00;99.90;;;;;;5000730;28;20555;-70
2021/08/25 08:08:51;;;;;;;3.30;2.90;;;18.10;99.90;;;;;;5001823;28;20551;-69
2021/08/25 08:11:17;;;;;;;5.70;3.37;;;18.20;99.90;;;;;;4998944;28;20484;-70
2021/08/25 08:13:43;;;;;;;4.23;3.20;;;18.30;99.90;;;;;;4984747;28;20788;-69
2021/08/25 08:16:09;;;;;;;7.70;3.73;;;18.40;99.90;;;;;;5000368;28;20488;-70
2021/08/25 08:18:41;;;;;;;4.00;3.60;;;18.40;99.90;;;;;;5001725;28;20225;-70
2021/08/25 08:21:07;;;;;;;7.20;3.40;;;18.50;99.90;;;;;;5001938;28;20466;-68
2021/08/25 08:23:33;;;;;;;5.00;3.63;;;18.50;99.90;;;;;;4999259;28;20464;-69
2021/08/25 08:26:00;;;;;;;3.40;3.10;;;18.60;99.90;;;;;;4980760;28;20236;-69
2021/08/25 08:28:26;;;;;;;4.10;3.53;;;18.70;99.90;;;;;;4999763;28;20468;-70
2021/08/25 08:30:52;;;;;;;3.23;2.70;;;18.80;99.90;;;;;;4985244;28;20460;-68
2021/08/25 08:33:18;;;;;;;4.03;3.63;;;18.90;99.90;;;;;;4999605;28;20476;-69
2021/08/25 08:35:43;;;;;;;5.07;3.07;;;19.00;99.90;;;;;;5000186;28;20682;-69
2021/08/25 08:38:09;;;;;;;4.77;3.60;;;19.10;99.90;;;;;;4980159;28;20234;-71
2021/08/25 08:40:36;;;;;;;4.40;3.60;;;19.10;99.90;;;;;;4981868;28;20737;-70
2021/08/25 08:43:07;;;;;;;5.43;3.60;;;19.10;99.90;;;;;;4981417;28;20820;-69
2021/08/25 08:45:38;;;;;;;3.53;3.17;;;19.20;99.90;;;;;;4996749;28;20521;-69
2021/08/25 08:48:04;;;;;;;4.33;3.70;;;19.30;99.90;;;;;;4985123;28;20468;-70
2021/08/25 08:50:30;;;;;;;4.70;3.00;;;19.30;99.90;;;;;;4983850;28;20456;-70
2021/08/25 08:52:56;;;;;;;5.20;3.30;;;19.40;99.90;;;;;;4976318;28;20892;-69
2021/08/25 08:55:23;;;;;;;4.20;3.37;;;19.50;99.90;;;;;;4982120;28;20224;-70
2021/08/25 08:57:49;;;;;;;3.03;2.70;;;19.60;99.90;;;;;;4985226;28;20461;-69
2021/08/25 09:00:15;;;;;;;3.83;3.10;;;19.70;99.90;;;;;;4999872;28;20804;-70
2021/08/25 09:02:43;;;;;;;3.90;3.30;;;19.80;99.90;;;;;;5000008;28;20232;-69
2021/08/25 09:05:14;;;;;;;5.97;3.40;;;19.80;99.90;;;;;;5000512;28;20221;-69
2021/08/25 09:07:47;;;;;;;4.00;3.27;;;19.90;99.90;;;;;;4983565;28;20462;-69
2021/08/25 09:10:12;;;;;;;5.23;3.10;;;19.90;99.90;;;;;;5000439;28;20467;-70
2021/08/25 09:12:48;;;;;;;5.30;2.97;;;20.00;99.90;;;;;;4998339;28;20484;-70
2021/08/25 09:15:22;;;;;;;3.33;3.03;;;20.10;99.90;;;;;;4998396;28;20221;-70
2021/08/25 09:17:58;;;;;;;3.37;2.77;;;20.20;99.90;;;;;;5001749;28;20973;-69
2021/08/25 09:20:24;;;;;;;4.30;3.57;;;20.30;99.90;;;;;;4999856;28;20464;-70
2021/08/25 09:23:28;;;;;;;6.57;2.90;;;20.30;99.90;;;;;;4982961;28;20548;-73
2021/08/25 09:26:07;;;;;;;4.30;3.47;;;20.40;99.90;;;;;;5003776;28;20470;-71
2021/08/25 09:28:35;;;;;;;3.30;3.00;;;20.50;99.90;;;;;;4967099;28;20452;-70
2021/08/25 09:31:11;;;;;;;7.17;3.53;;;20.60;99.90;;;;;;5057503;28;20489;-70
2021/08/25 09:33:39;;;;;;;3.60;3.30;;;20.60;99.90;;;;;;5088353;28;20471;-68
2021/08/25 09:36:08;;;;;;;4.50;3.50;;;20.70;99.90;;;;;;5101528;28;20474;-70
2021/08/25 09:38:35;;;;;;;4.10;3.70;;;20.70;99.90;;;;;;5078073;28;20626;-70
2021/08/25 09:41:12;;;;;;;4.73;3.63;;;20.80;99.90;;;;;;4999099;28;20456;-69
2021/08/25 09:43:43;;;;;;;6.63;3.40;;;21.00;99.90;;;;;;4986286;28;20460;-68
2021/08/25 09:46:10;;;;;;;3.47;3.17;;;21.10;99.90;;;;;;4989028;28;20475;-70
2021/08/25 09:48:39;;;;;;;3.70;3.20;;;21.20;99.90;;;;;;5010192;28;20534;-71
2021/08/25 09:51:06;;;;;;;4.80;3.30;;;21.30;99.90;;;;;;5000225;28;20473;-69
2021/08/25 09:53:31;;;;;;;5.73;3.57;;;21.40;99.90;;;;;;4975878;28;20547;-70
2021/08/25 09:55:57;;;;;;;5.07;3.27;;;21.50;99.90;;;;;;5031123;28;20547;-71
2021/08/25 09:58:24;;;;;;;4.00;3.27;;;21.50;99.90;;;;;;5100866;28;20217;-70
2021/08/25 10:00:53;;;;;;;3.47;3.13;;;21.60;99.90;;;;;;5007013;28;20359;-70
2021/08/25 10:03:18;;;;;;;4.30;3.53;;;21.80;99.90;;;;;;4985882;28;20476;-69
2021/08/25 10:05:46;;;;;;;3.43;3.10;;;21.90;99.90;;;;;;5013483;28;20463;-70
2021/08/25 10:08:15;;;;;;;4.33;3.07;;;22.00;99.90;;;;;;4979485;28;20731;-70
2021/08/25 10:10:42;;;;;;;4.47;3.60;;;22.10;99.90;;;;;;5030880;28;20462;-69
2021/08/25 10:13:08;;;;;;;5.00;3.30;;;22.20;99.90;;;;;;5009114;28;20569;-70
2021/08/25 10:15:34;;;;;;;3.80;3.47;;;22.20;99.50;;;;;;5081641;28;20466;-70
2021/08/25 10:18:25;;;;;;;4.57;3.60;;;22.10;98.90;;;;;;5085749;28;20546;-70
2021/08/25 10:20:53;;;;;;;3.63;3.07;;;22.20;99.10;;;;;;5086030;28;20463;-70
2021/08/25 10:23:19;;;;;;;4.10;3.23;;;22.20;98.80;;;;;;4988912;28;20528;-70
2021/08/25 10:26:08;;;;;;;4.50;3.87;;;22.30;98.60;;;;;;4989308;28;20463;-69
2021/08/25 10:29:03;;;;;;;3.37;3.07;;;22.40;98.50;;;;;;4984320;28;20471;-71
2021/08/25 10:31:47;;;;;;;3.50;3.13;;;22.50;98.40;;;;;;5015037;28;20481;-70
2021/08/25 10:34:15;;;;;;;4.40;3.07;;;22.60;98.60;;;;;;4994452;28;20472;-69
2021/08/25 10:36:41;;;;;;;4.20;3.07;;;22.60;97.80;;;;;;4989450;28;20475;-71
2021/08/25 10:39:28;;;;;;;3.40;3.10;;;22.40;97.50;;;;;;4972604;28;20491;-69
2021/08/25 10:41:54;;;;;;;3.77;3.20;;;22.60;97.60;;;;;;4978788;28;20461;-71
2021/08/25 10:44:41;;;;;;;4.97;3.57;;;22.80;97.60;;;;;;4966004;28;20908;-70
2021/08/25 10:47:09;;;;;;;4.23;3.57;;;23.00;97.00;;;;;;5001051;28;20240;-69
2021/08/25 10:49:36;;;;;;;3.70;3.33;;;23.00;96.60;;;;;;5002992;28;20497;-71
2021/08/25 10:52:14;;;;;;;3.73;3.37;;;23.00;96.40;;;;;;4975406;28;20583;-70
2021/08/25 10:54:48;;;;;;;3.10;2.80;;;23.00;96.10;;;;;;4994191;28;20468;-71
2021/08/25 10:57:19;;;;;;;5.10;3.57;;;23.00;96.10;;;;;;4984565;28;20956;-71
2021/08/25 10:59:46;;;;;;;4.80;3.40;;;23.00;96.50;;;;;;5013021;28;20610;-70
2021/08/25 11:02:12;;;;;;;5.13;2.93;;;23.10;95.80;;;;;;4984359;28;20539;-69
2021/08/25 11:04:38;;;;;;;3.40;3.10;;;23.20;96.30;;;;;;5003383;28;20538;-70
2021/08/25 11:07:11;;;;;;;3.80;3.00;;;23.40;95.20;;;;;;4998329;28;20553;-69
2021/08/25 11:09:47;;;;;;;3.93;2.77;;;23.40;95.10;;;;;;5088558;28;20247;-70
2021/08/25 11:12:21;;;;;;;4.40;3.37;;;23.30;94.60;;;;;;5053355;27;20982;-70
2021/08/25 11:14:47;;;;;;;3.87;3.50;;;23.20;93.90;;;;;;4949082;28;20465;-70
2021/08/25 11:17:18;;;;;;;5.43;3.43;;;23.00;94.10;;;;;;4987288;28;20479;-70
2021/08/25 11:19:45;;;;;;;4.00;3.60;;;23.00;94.00;;;;;;5020870;28;20791;-69
2021/08/25 11:22:17;;;;;;;3.17;2.87;;;23.10;94.80;;;;;;4989726;28;20463;-70
2021/08/25 11:24:46;;;;;;;4.00;3.00;;;23.20;94.60;;;;;;5005637;28;21017;-69
2021/08/25 11:27:22;;;;;;;4.90;3.90;;;23.30;94.20;;;;;;5003427;28;20455;-70
2021/08/25 11:30:06;;;;;;;3.10;2.77;;;23.30;93.90;;;;;;4987915;28;20546;-70
2021/08/25 11:32:33;;;;;;;3.23;2.80;;;23.30;93.80;;;;;;5047305;28;20512;-69
2021/08/25 11:34:59;;;;;;;3.60;3.30;;;23.40;94.00;;;;;;5009395;28;20484;-70
2021/08/25 11:37:25;;;;;;;7.50;3.50;;;23.40;92.70;;;;;;5002597;28;20992;-70
2021/08/25 11:39:58;;;;;;;5.10;3.80;;;23.40;92.90;;;;;;4988450;28;20451;-69
2021/08/25 11:42:35;;;;;;;6.60;3.67;;;23.20;92.80;;;;;;5002427;28;20225;-71
2021/08/25 11:45:28;;;;;;;7.03;3.37;;;23.30;93.60;;;;;;4984973;28;20463;-71
2021/08/25 11:47:58;;;;;;;11.60;3.73;;;23.60;93.90;;;;;;5064881;28;20837;-71
2021/08/25 11:50:26;;;;;;;10.67;3.80;;;23.80;93.60;;;;;;5085743;28;20566;-71
2021/08/25 11:52:52;;;;;;;4.67;3.60;;;23.90;92.50;;;;;;5074168;28;20471;-69
2021/08/25 11:55:18;;;;;;;4.47;3.80;;;23.90;93.20;;;;;;5023953;28;20471;-70
2021/08/25 11:57:53;;;;;;;4.60;3.80;;;23.80;92.80;;;;;;4987805;28;20716;-70
2021/08/25 12:00:40;;;;;;;3.60;3.30;;;23.70;92.00;;;;;;5041162;28;20455;-70
2021/08/25 12:03:08;;;;;;;4.37;3.80;;;23.60;92.30;;;;;;5003888;28;20464;-70
2021/08/25 12:05:34;;;;;;;3.87;3.53;;;23.70;92.00;;;;;;5036455;28;21241;-70
2021/08/25 12:08:06;;;;;;;5.73;3.73;;;23.90;92.00;;;;;;5038458;28;20976;-70
2021/08/25 12:10:33;;;;;;;5.20;4.27;;;24.10;92.30;;;;;;4981129;28;20228;-70
2021/08/25 12:12:59;;;;;;;3.73;3.33;;;24.20;92.90;;;;;;5001789;28;20478;-70
2021/08/25 12:15:51;;;;;;;4.70;3.97;;;24.30;92.70;;;;;;4981859;28;20471;-70
2021/08/25 12:18:22;;;;;;;6.90;3.60;;;24.40;92.40;;;;;;4994285;28;20224;-70
2021/08/25 12:20:51;;;;;;;4.63;3.97;;;24.40;92.50;;;;;;4994121;28;21131;-70
2021/08/25 12:23:19;;;;;;;3.43;3.13;;;24.40;92.60;;;;;;4997741;28;20977;-70
2021/08/25 12:25:50;;;;;;;5.60;3.90;;;24.20;91.80;;;;;;4995963;28;20586;-70
2021/08/25 12:28:38;;;;;;;5.60;3.77;;;24.20;91.90;;;;;;4999173;28;20992;-71
2021/08/25 12:31:25;;;;;;;4.80;3.50;;;24.20;91.80;;;;;;4983321;28;20467;-69
2021/08/25 12:34:28;;;;;;;5.97;4.50;;;24.30;92.40;;;;;;4983440;28;20473;-70
2021/08/25 12:36:56;;;;;;;4.10;3.60;;;24.30;91.80;;;;;;5083916;28;20478;-70
2021/08/25 12:39:27;;;;;;;5.37;4.20;;;24.20;91.80;;;;;;5062469;28;20458;-70
2021/08/25 12:41:56;;;;;;;4.43;3.60;;;24.20;92.40;;;;;;5006786;28;20459;-70
2021/08/25 12:44:24;;;;;;;4.80;4.30;;;24.20;92.50;;;;;;5024101;28;20478;-70
2021/08/25 12:46:51;;;;;;;4.60;3.73;;;24.30;92.10;;;;;;5073271;28;20548;-70
2021/08/25 12:49:18;;;;;;;5.50;3.83;;;24.30;92.50;;;;;;5022531;28;20462;-70